createdAt,value
2022-08-21T00:02:26.011Z,16.00
2022-08-21T00:04:57.981Z,15.90
2022-08-21T00:07:27.119Z,16.00
2022-08-21T00:09:55.542Z,15.90
2022-08-21T00:12:24.817Z,15.90
2022-08-21T00:14:54.795Z,16.00
2022-08-21T00:17:26.781Z,16.10
2022-08-21T00:19:56.699Z,16.00
2022-08-21T00:22:25.497Z,16.00
2022-08-21T00:24:54.065Z,16.00
2022-08-21T00:27:23.287Z,16.10
2022-08-21T00:29:51.853Z,16.10
2022-08-21T00:32:23.568Z,16.00
2022-08-21T00:34:52.963Z,16.00
2022-08-21T00:37:23.929Z,15.90
2022-08-21T00:39:52.769Z,15.70
2022-08-21T00:42:21.573Z,15.60
2022-08-21T00:44:52.262Z,15.40
2022-08-21T00:47:21.508Z,15.30
2022-08-21T00:49:50.437Z,15.30
2022-08-21T00:52:25.277Z,15.20
2022-08-21T00:54:55.478Z,15.10
2022-08-21T00:57:32.995Z,14.90
2022-08-21T01:00:04.142Z,14.80
2022-08-21T01:02:34.057Z,14.70
2022-08-21T01:05:04.121Z,14.60
2022-08-21T01:07:34.592Z,14.50
2022-08-21T01:10:03.542Z,14.40
2022-08-21T01:12:33.699Z,14.40
2022-08-21T01:15:05.442Z,14.30
2022-08-21T01:17:34.629Z,14.30
2022-08-21T01:20:06.840Z,14.20
2022-08-21T01:22:37.456Z,14.10
2022-08-21T01:25:08.462Z,14.00
2022-08-21T01:27:37.400Z,14.00
2022-08-21T01:30:12.850Z,13.90
2022-08-21T01:32:42.337Z,13.80
2022-08-21T01:35:12.587Z,13.70
2022-08-21T01:37:43.986Z,13.70
2022-08-21T01:40:13.684Z,13.70
2022-08-21T01:42:43.200Z,13.60
2022-08-21T01:45:12.429Z,13.60
2022-08-21T01:47:41.020Z,13.60
2022-08-21T01:50:12.557Z,13.50
2022-08-21T01:52:42.664Z,13.40
2022-08-21T01:55:17.057Z,13.40
2022-08-21T01:57:46.013Z,13.40
2022-08-21T02:00:17.824Z,13.30
2022-08-21T02:02:46.688Z,13.30
2022-08-21T02:05:16.147Z,13.30
2022-08-21T02:07:49.051Z,13.30
2022-08-21T02:10:22.732Z,13.30
2022-08-21T02:12:51.354Z,13.30
2022-08-21T02:15:20.806Z,13.30
2022-08-21T02:17:52.746Z,13.30
2022-08-21T02:20:23.930Z,13.40
2022-08-21T02:22:54.537Z,13.50
2022-08-21T02:25:24.674Z,13.60
2022-08-21T02:27:53.402Z,13.70
2022-08-21T02:30:24.595Z,13.80
2022-08-21T02:32:53.484Z,13.80
2022-08-21T02:35:22.804Z,13.90
2022-08-21T02:37:56.700Z,13.90
2022-08-21T02:40:28.798Z,13.90
2022-08-21T02:42:57.307Z,13.80
2022-08-21T02:45:26.339Z,13.70
2022-08-21T02:47:56.968Z,13.70
2022-08-21T02:50:28.197Z,13.60
2022-08-21T02:52:58.762Z,13.50
2022-08-21T02:55:30.293Z,13.40
2022-08-21T02:58:00.736Z,13.30
2022-08-21T03:00:31.312Z,13.30
2022-08-21T03:03:00.532Z,13.20
2022-08-21T03:05:32.044Z,13.10
2022-08-21T03:08:03.232Z,13.10
2022-08-21T03:10:32.955Z,13.00
2022-08-21T03:13:01.471Z,13.10
2022-08-21T03:15:29.924Z,13.00
2022-08-21T03:17:58.684Z,12.90
2022-08-21T03:20:30.364Z,12.90
2022-08-21T03:22:59.022Z,12.90
2022-08-21T03:25:40.057Z,12.80
2022-08-21T03:28:13.364Z,12.80
2022-08-21T03:30:42.866Z,12.70
2022-08-21T03:33:13.099Z,12.70
2022-08-21T03:35:45.143Z,12.60
2022-08-21T03:38:14.930Z,12.80
2022-08-21T03:40:45.588Z,12.70
2022-08-21T03:43:14.160Z,12.70
2022-08-21T03:45:42.844Z,12.60
2022-08-21T03:48:11.512Z,12.60
2022-08-21T03:50:46.039Z,12.60
2022-08-21T03:53:16.411Z,12.50
2022-08-21T03:55:48.321Z,12.40
2022-08-21T03:58:17.996Z,12.30
2022-08-21T04:00:47.437Z,12.30
2022-08-21T04:03:16.086Z,12.40
2022-08-21T04:05:46.330Z,12.40
2022-08-21T04:08:16.355Z,12.40
2022-08-21T04:10:48.501Z,12.30
2022-08-21T04:13:17.089Z,12.30
2022-08-21T04:15:45.835Z,12.50
2022-08-21T04:18:14.353Z,12.60
2022-08-21T04:20:45.325Z,12.60
2022-08-21T04:23:24.308Z,12.50
2022-08-21T04:25:56.642Z,12.60
2022-08-21T04:28:29.249Z,12.60
2022-08-21T04:30:59.546Z,12.70
2022-08-21T04:33:28.238Z,12.70
2022-08-21T04:35:56.847Z,12.70
2022-08-21T04:38:25.448Z,12.70
2022-08-21T04:40:56.455Z,12.60
2022-08-21T04:43:25.459Z,12.50
2022-08-21T04:45:55.791Z,12.50
2022-08-21T04:48:26.317Z,12.50
2022-08-21T04:50:58.681Z,12.60
2022-08-21T04:53:32.216Z,12.70
2022-08-21T04:56:08.285Z,12.80
2022-08-21T04:58:38.787Z,12.80
2022-08-21T05:01:12.523Z,12.90
2022-08-21T05:03:42.296Z,13.00
2022-08-21T05:06:14.902Z,12.90
2022-08-21T05:08:47.470Z,13.00
2022-08-21T05:11:17.702Z,13.00
2022-08-21T05:13:46.673Z,13.00
2022-08-21T05:16:15.250Z,13.10
2022-08-21T05:19:03.997Z,13.20
2022-08-21T05:21:32.445Z,13.20
2022-08-21T05:24:02.446Z,13.40
2022-08-21T05:26:32.736Z,13.50
2022-08-21T05:29:01.556Z,13.60
2022-08-21T05:31:30.897Z,13.60
2022-08-21T05:33:59.455Z,13.70
2022-08-21T05:36:31.693Z,13.90
2022-08-21T05:39:00.191Z,14.00
2022-08-21T05:41:28.792Z,14.20
2022-08-21T05:43:58.802Z,14.30
2022-08-21T05:46:27.428Z,14.40
2022-08-21T05:49:07.881Z,14.50
2022-08-21T05:51:36.676Z,14.60
2022-08-21T05:54:05.986Z,14.70
2022-08-21T05:56:34.973Z,14.80
2022-08-21T05:59:08.601Z,15.00
2022-08-21T06:01:37.509Z,15.00
2022-08-21T06:04:06.578Z,15.10
2022-08-21T06:06:36.093Z,15.20
2022-08-21T06:09:05.060Z,15.30
2022-08-21T06:11:34.777Z,15.30
2022-08-21T06:14:07.357Z,15.50
2022-08-21T06:16:35.867Z,15.50
2022-08-21T06:19:04.406Z,15.80
2022-08-21T06:21:32.908Z,15.90
2022-08-21T06:24:01.415Z,16.00
2022-08-21T06:26:30.315Z,16.20
2022-08-21T06:28:59.073Z,16.40
2022-08-21T06:31:30.191Z,16.70
2022-08-21T06:33:59.108Z,16.90
2022-08-21T06:36:27.891Z,17.00
2022-08-21T06:38:57.132Z,17.20
2022-08-21T06:41:27.111Z,17.30
2022-08-21T06:43:57.124Z,17.40
2022-08-21T06:46:26.127Z,17.40
2022-08-21T06:48:56.452Z,17.50
2022-08-21T06:51:26.745Z,17.60
2022-08-21T06:53:58.823Z,17.70
2022-08-21T06:56:28.274Z,17.80
2022-08-21T06:58:56.801Z,17.90
2022-08-21T07:01:28.733Z,17.90
2022-08-21T07:03:59.062Z,18.00
2022-08-21T07:06:27.831Z,18.10
2022-08-21T07:08:58.929Z,18.20
2022-08-21T07:11:28.609Z,18.30
2022-08-21T07:13:57.711Z,18.40
2022-08-21T07:16:26.656Z,18.50
2022-08-21T07:18:55.342Z,18.50
2022-08-21T07:21:26.305Z,18.50
2022-08-21T07:23:55.534Z,18.60
2022-08-21T07:26:25.779Z,18.70
2022-08-21T07:28:54.695Z,18.70
2022-08-21T07:31:26.243Z,18.70
2022-08-21T07:33:55.524Z,18.80
2022-08-21T07:36:25.760Z,18.90
2022-08-21T07:38:54.344Z,18.90
2022-08-21T07:41:30.397Z,19.10
2022-08-21T07:43:59.552Z,19.20
2022-08-21T07:46:28.645Z,19.30
2022-08-21T07:48:57.849Z,19.40
2022-08-21T07:51:36.071Z,19.50
2022-08-21T07:54:04.810Z,19.50
2022-08-21T07:56:34.166Z,19.50
2022-08-21T07:59:03.869Z,19.50
2022-08-21T08:01:32.647Z,19.50
2022-08-21T08:04:01.223Z,19.70
2022-08-21T08:06:31.648Z,19.80
2022-08-21T08:09:00.189Z,19.80
2022-08-21T08:11:29.200Z,19.90
2022-08-21T08:14:00.532Z,19.90
2022-08-21T08:16:29.729Z,20.00
2022-08-21T08:18:59.062Z,20.10
2022-08-21T08:21:27.720Z,20.20
2022-08-21T08:23:57.872Z,20.40
2022-08-21T08:26:26.344Z,20.60
2022-08-21T08:28:54.868Z,20.50
2022-08-21T08:31:24.404Z,20.50
2022-08-21T08:33:53.201Z,20.60
2022-08-21T08:36:21.731Z,20.70
2022-08-21T08:38:50.434Z,20.70
2022-08-21T08:41:23.899Z,20.90
2022-08-21T08:44:02.568Z,21.00
2022-08-21T08:46:37.964Z,21.20
2022-08-21T08:49:12.509Z,21.30
2022-08-21T08:51:48.567Z,21.40
2022-08-21T08:54:29.287Z,21.50
2022-08-21T08:57:00.396Z,21.50
2022-08-21T08:59:35.622Z,21.50
2022-08-21T09:02:04.745Z,21.60
2022-08-21T09:04:33.510Z,21.70
2022-08-21T09:07:14.689Z,21.70
2022-08-21T09:09:56.816Z,21.70
2022-08-21T09:12:47.965Z,21.80
2022-08-21T09:15:25.625Z,21.80
2022-08-21T09:18:09.106Z,21.80
2022-08-21T09:20:43.474Z,21.90
2022-08-21T09:23:24.802Z,21.90
2022-08-21T09:26:01.233Z,21.90
2022-08-21T09:28:34.272Z,22.00
2022-08-21T09:31:05.570Z,22.20
2022-08-21T09:33:34.192Z,22.30
2022-08-21T09:36:02.983Z,22.40
2022-08-21T09:38:34.143Z,22.50
2022-08-21T09:41:06.726Z,22.60
2022-08-21T09:43:37.238Z,22.70
2022-08-21T09:46:11.086Z,23.00
2022-08-21T09:48:45.709Z,23.50
2022-08-21T09:51:16.944Z,23.80
2022-08-21T09:53:49.459Z,24.40
2022-08-21T09:56:40.577Z,25.00
2022-08-21T09:59:36.080Z,25.70
2022-08-21T10:02:29.412Z,25.80
2022-08-21T10:05:00.979Z,25.70
2022-08-21T10:07:31.804Z,25.70
2022-08-21T10:10:05.326Z,25.60
2022-08-21T10:12:44.352Z,25.70
2022-08-21T10:15:22.427Z,26.30
2022-08-21T10:18:01.858Z,26.30
2022-08-21T10:20:39.065Z,26.80
2022-08-21T10:23:23.113Z,27.00
2022-08-21T10:26:12.904Z,27.20
2022-08-21T10:28:53.979Z,27.70
2022-08-21T10:31:35.429Z,27.60
2022-08-21T10:34:15.854Z,28.10
2022-08-21T10:36:53.416Z,27.70
2022-08-21T10:39:36.100Z,27.50
2022-08-21T10:42:28.625Z,27.20
2022-08-21T10:45:13.444Z,27.10
2022-08-21T10:47:52.136Z,27.10
2022-08-21T10:50:32.208Z,27.10
2022-08-21T10:53:21.592Z,27.20
2022-08-21T10:55:57.940Z,27.60
2022-08-21T10:58:31.688Z,27.20
2022-08-21T11:01:06.442Z,27.80
2022-08-21T11:03:41.139Z,28.10
2022-08-21T11:06:15.332Z,28.10
2022-08-21T11:08:47.773Z,27.60
2022-08-21T11:11:22.738Z,27.80
2022-08-21T11:13:56.557Z,27.70
2022-08-21T11:16:33.715Z,28.00
2022-08-21T11:19:10.185Z,28.10
2022-08-21T11:21:44.973Z,28.40
2022-08-21T11:24:27.385Z,28.90
2022-08-21T11:27:05.664Z,29.10
2022-08-21T11:29:37.847Z,29.70
2022-08-21T11:32:27.338Z,30.30
2022-08-21T11:35:04.343Z,30.10
2022-08-21T11:37:51.990Z,30.10
2022-08-21T11:40:32.076Z,30.50
2022-08-21T11:43:12.087Z,30.40
2022-08-21T11:45:52.781Z,31.10
2022-08-21T11:48:35.593Z,32.10
2022-08-21T11:51:14.428Z,32.50
2022-08-21T11:53:54.293Z,32.40
2022-08-21T11:56:28.181Z,31.60
2022-08-21T11:59:00.212Z,30.30
2022-08-21T12:01:34.074Z,30.30
2022-08-21T12:04:13.820Z,31.80
2022-08-21T12:06:44.107Z,32.30
2022-08-21T12:09:35.785Z,32.20
2022-08-21T12:12:10.743Z,32.10
2022-08-21T12:14:43.938Z,32.40
2022-08-21T12:17:33.473Z,31.70
2022-08-21T12:20:05.289Z,31.10
2022-08-21T12:22:43.862Z,30.30
2022-08-21T12:25:21.594Z,30.10
2022-08-21T12:27:53.862Z,31.00
2022-08-21T12:30:34.946Z,31.50
2022-08-21T12:33:06.447Z,31.70
2022-08-21T12:35:53.395Z,32.50
2022-08-21T12:38:30.009Z,34.10
2022-08-21T12:41:01.801Z,35.40
2022-08-21T12:43:33.895Z,35.30
2022-08-21T12:46:05.609Z,35.50
2022-08-21T12:48:41.299Z,35.60
2022-08-21T12:51:14.348Z,35.70
2022-08-21T12:53:50.138Z,34.70
2022-08-21T12:56:21.032Z,33.90
2022-08-21T12:58:52.459Z,33.80
2022-08-21T13:01:28.177Z,32.90
2022-08-21T13:04:04.510Z,32.50
2022-08-21T13:06:43.583Z,32.40
2022-08-21T13:09:16.951Z,32.00
2022-08-21T13:11:50.808Z,31.70
2022-08-21T13:14:30.226Z,32.10
2022-08-21T13:17:01.409Z,32.70
2022-08-21T13:19:31.604Z,33.70
2022-08-21T13:22:01.116Z,34.00
2022-08-21T13:24:43.342Z,33.70
2022-08-21T13:27:24.304Z,33.50
2022-08-21T13:30:06.623Z,34.10
2022-08-21T13:32:40.274Z,35.50
2022-08-21T13:35:18.635Z,35.80
2022-08-21T13:37:52.245Z,34.20
2022-08-21T13:40:27.663Z,33.90
2022-08-21T13:42:57.555Z,33.40
2022-08-21T13:45:35.996Z,34.00
2022-08-21T13:48:06.983Z,33.70
2022-08-21T13:50:39.063Z,33.10
2022-08-21T13:53:10.317Z,34.40
2022-08-21T13:55:44.209Z,34.90
2022-08-21T13:58:13.876Z,35.40
2022-08-21T14:00:48.741Z,35.00
2022-08-21T14:03:36.227Z,33.40
2022-08-21T14:06:13.065Z,33.00
2022-08-21T14:08:42.714Z,33.20
2022-08-21T14:11:15.782Z,33.30
2022-08-21T14:13:46.713Z,33.60
2022-08-21T14:16:20.573Z,33.30
2022-08-21T14:19:06.731Z,32.50
2022-08-21T14:21:37.592Z,32.00
2022-08-21T14:24:10.859Z,31.90
2022-08-21T14:26:48.500Z,32.40
2022-08-21T14:29:18.907Z,32.80
2022-08-21T14:31:52.312Z,34.20
2022-08-21T14:34:21.474Z,35.20
2022-08-21T14:36:51.822Z,36.60
2022-08-21T14:39:20.506Z,37.90
2022-08-21T14:41:51.662Z,37.40
2022-08-21T14:44:21.543Z,37.10
2022-08-21T14:46:55.627Z,36.90
2022-08-21T14:49:27.738Z,36.90
2022-08-21T14:51:58.713Z,36.50
2022-08-21T14:54:30.846Z,36.40
2022-08-21T14:57:05.741Z,36.80
2022-08-21T14:59:35.271Z,36.60
2022-08-21T15:02:05.597Z,37.10
2022-08-21T15:04:35.945Z,37.50
2022-08-21T15:07:05.508Z,37.50
2022-08-21T15:09:34.256Z,37.70
2022-08-21T15:12:05.837Z,38.50
2022-08-21T15:14:37.307Z,39.00
2022-08-21T15:17:08.524Z,38.30
2022-08-21T15:19:37.681Z,37.30
2022-08-21T15:22:18.596Z,36.20
2022-08-21T15:24:47.877Z,34.20
2022-08-21T15:27:20.382Z,33.80
2022-08-21T15:29:49.301Z,32.90
2022-08-21T15:32:22.473Z,32.10
2022-08-21T15:34:51.370Z,32.20
2022-08-21T15:37:20.721Z,32.70
2022-08-21T15:39:53.832Z,32.90
2022-08-21T15:42:27.841Z,31.70
2022-08-21T15:44:58.151Z,31.90
2022-08-21T15:47:32.935Z,31.70
2022-08-21T15:50:01.736Z,31.70
2022-08-21T15:52:30.415Z,32.20
2022-08-21T15:54:59.123Z,31.70
2022-08-21T15:57:29.911Z,31.40
2022-08-21T16:00:04.934Z,31.40
2022-08-21T16:02:41.579Z,31.20
2022-08-21T16:05:11.546Z,30.90
2022-08-21T16:07:41.138Z,30.30
2022-08-21T16:10:10.445Z,30.30
2022-08-21T16:12:43.834Z,30.10
2022-08-21T16:15:20.435Z,29.50
2022-08-21T16:17:50.954Z,28.70
2022-08-21T16:20:23.438Z,29.00
2022-08-21T16:22:52.239Z,29.20
2022-08-21T16:25:21.300Z,29.20
2022-08-21T16:27:58.977Z,29.50
2022-08-21T16:30:30.217Z,29.90
2022-08-21T16:32:59.679Z,29.70
2022-08-21T16:35:35.257Z,29.70
2022-08-21T16:38:04.314Z,29.90
2022-08-21T16:40:34.410Z,29.90
2022-08-21T16:43:06.631Z,29.50
2022-08-21T16:45:35.940Z,29.40
2022-08-21T16:48:10.121Z,29.60
2022-08-21T16:50:43.012Z,29.60
2022-08-21T16:53:11.816Z,29.00
2022-08-21T16:55:41.214Z,28.20
2022-08-21T16:58:16.539Z,28.10
2022-08-21T17:00:45.610Z,27.50
2022-08-21T17:03:17.968Z,27.50
2022-08-21T17:05:46.949Z,27.50
2022-08-21T17:08:16.095Z,27.80
2022-08-21T17:10:48.344Z,27.90
2022-08-21T17:13:19.635Z,27.90
2022-08-21T17:15:48.536Z,27.90
2022-08-21T17:18:21.280Z,27.50
2022-08-21T17:20:50.578Z,27.40
2022-08-21T17:23:21.626Z,27.10
2022-08-21T17:25:54.752Z,26.60
2022-08-21T17:28:30.868Z,26.30
2022-08-21T17:31:12.251Z,26.30
2022-08-21T17:33:46.944Z,26.20
2022-08-21T17:36:27.306Z,26.00
2022-08-21T17:39:07.236Z,25.90
2022-08-21T17:41:45.510Z,25.80
2022-08-21T17:44:23.136Z,25.60
2022-08-21T17:46:55.474Z,25.40
2022-08-21T17:49:33.308Z,25.20
2022-08-21T17:52:10.671Z,25.10
2022-08-21T17:54:42.579Z,25.00
2022-08-21T17:57:18.938Z,24.90
2022-08-21T17:59:52.389Z,24.70
2022-08-21T18:02:25.525Z,24.70
2022-08-21T18:04:59.232Z,24.50
2022-08-21T18:07:33.060Z,24.40
2022-08-21T18:10:02.524Z,24.30
2022-08-21T18:12:37.604Z,24.10
2022-08-21T18:15:11.584Z,24.00
2022-08-21T18:17:47.979Z,23.90
2022-08-21T18:20:22.304Z,23.80
2022-08-21T18:22:51.567Z,23.70
2022-08-21T18:25:21.076Z,23.60
2022-08-21T18:27:51.221Z,23.50
2022-08-21T18:30:25.025Z,23.40
2022-08-21T18:32:59.485Z,23.30
2022-08-21T18:35:29.428Z,23.10
2022-08-21T18:38:01.747Z,23.10
2022-08-21T18:40:41.246Z,23.00
2022-08-21T18:43:15.656Z,22.90
2022-08-21T18:45:46.753Z,22.80
2022-08-21T18:48:20.588Z,22.70
2022-08-21T18:50:50.697Z,22.60
2022-08-21T18:53:27.502Z,22.60
2022-08-21T18:56:05.242Z,22.40
2022-08-21T18:58:35.983Z,22.30
2022-08-21T19:01:12.081Z,22.30
2022-08-21T19:03:51.806Z,22.10
2022-08-21T19:06:32.125Z,22.00
2022-08-21T19:09:20.928Z,22.00
2022-08-21T19:11:58.305Z,22.00
2022-08-21T19:14:35.001Z,22.00
2022-08-21T19:17:20.291Z,22.00
2022-08-21T19:19:57.923Z,21.90
2022-08-21T19:22:31.990Z,21.80
2022-08-21T19:25:14.499Z,21.60
2022-08-21T19:27:51.119Z,21.50
2022-08-21T19:33:29.930Z,21.50
2022-08-21T19:36:08.642Z,21.40
2022-08-21T19:38:49.690Z,21.20
2022-08-21T19:41:29.609Z,21.10
2022-08-21T19:44:07.560Z,20.90
2022-08-21T19:46:58.261Z,20.90
2022-08-21T19:49:54.167Z,20.90
2022-08-21T19:55:37.394Z,21.20
2022-08-21T19:58:29.075Z,21.20
2022-08-21T20:11:49.576Z,21.40
2022-08-21T20:14:21.111Z,21.40
2022-08-21T20:16:52.683Z,21.30
2022-08-21T20:19:22.189Z,21.20
2022-08-21T20:37:58.473Z,21.00
2022-08-21T20:40:46.502Z,20.80
2022-08-21T20:43:20.381Z,20.70
2022-08-21T20:45:57.653Z,20.50
2022-08-21T20:48:49.085Z,20.40
2022-08-21T20:51:29.652Z,20.60
2022-08-21T20:54:15.480Z,20.50
2022-08-21T20:56:52.340Z,20.70
2022-08-21T21:00:07.497Z,20.50
2022-08-21T21:02:58.100Z,20.50
2022-08-21T21:06:01.973Z,20.40
2022-08-21T21:08:50.741Z,20.30
2022-08-21T21:12:18.780Z,20.30
2022-08-21T21:16:12.816Z,20.30
2022-08-21T21:19:10.834Z,20.40
2022-08-21T21:22:28.005Z,20.40
2022-08-21T21:25:04.740Z,20.40
2022-08-21T21:27:38.466Z,20.40
2022-08-21T21:30:20.987Z,20.30
2022-08-21T21:33:08.853Z,20.20
2022-08-21T21:36:11.345Z,20.40
2022-08-21T21:39:14.167Z,20.20
2022-08-21T21:45:56.317Z,20.20
2022-08-21T21:49:13.485Z,20.10
2022-08-21T21:52:30.874Z,20.10
2022-08-21T21:56:02.672Z,20.00
2022-08-21T22:00:04.042Z,19.90
2022-08-21T22:03:25.150Z,19.90
2022-08-21T22:06:58.066Z,20.10
2022-08-21T22:10:20.039Z,19.90
2022-08-21T22:16:43.941Z,19.70
2022-08-21T22:22:57.477Z,19.50
2022-08-21T22:25:31.490Z,19.50
2022-08-21T22:28:06.014Z,19.50
2022-08-21T22:30:45.456Z,19.60
2022-08-21T22:33:20.069Z,19.60
2022-08-21T22:35:51.549Z,19.50
2022-08-21T22:38:31.248Z,19.50
2022-08-21T22:41:17.489Z,19.50
2022-08-21T22:43:57.774Z,19.50
2022-08-21T22:46:36.086Z,19.50
2022-08-21T22:49:12.707Z,19.40
2022-08-21T22:51:44.217Z,19.30
2022-08-21T22:54:24.391Z,19.10
2022-08-21T22:57:02.074Z,19.00
2022-08-21T22:59:34.874Z,19.10
2022-08-21T23:02:11.447Z,19.00
2022-08-21T23:04:49.179Z,18.80
2022-08-21T23:07:35.460Z,18.80
2022-08-21T23:10:23.062Z,18.80
2022-08-21T23:13:01.731Z,18.70
2022-08-21T23:15:42.099Z,19.00
2022-08-21T23:18:21.742Z,19.00
2022-08-21T23:21:03.064Z,18.80
2022-08-21T23:23:36.960Z,18.60
2022-08-21T23:26:22.881Z,18.30
2022-08-21T23:29:07.760Z,18.30
2022-08-21T23:31:45.728Z,18.20
2022-08-21T23:34:25.620Z,18.00
2022-08-21T23:37:49.258Z,17.80
2022-08-21T23:40:38.643Z,17.60
2022-08-21T23:43:37.498Z,17.40
2022-08-21T23:46:41.810Z,17.30
2022-08-21T23:49:27.172Z,17.30
2022-08-21T23:52:06.341Z,17.10
2022-08-21T23:54:48.064Z,17.10
2022-08-21T23:57:31.815Z,17.00
